McCrory, Arkansas
Current Conditions -  °F | °C
As of 9:56 AM on Monday 26 Jan 2015 (Local Time) from KM19 Reporting Station
Broken Clouds Broken Clouds  
Wind Chill: 35°   Ceiling: 2500
Heat Index: 42°   Visibility: 10mi
Dew Point: 31°   Wind: 14mph
Humidity: 66%   Direction: 330°NNW
Pressure: 30.13"   Gusts: NA
Location:  35.26°N, 91.2°W
Report Text: KM19 261556Z AUTO 33012KT 10SM BKN025 06/M01 A3013 RMK AO2 T00551005 SLP205
Loading
Personal Weather Stations






























Interactive Weather Map New forecast layout! Learn more

10-Day Weather Forecast

Advertisements
Track Severe Weather on mobile